sensor_id;sensor_type;location;lat;lon;timestamp;pressure;altitude;pressure_sealevel;temperature;humidity
7906;BME280;13291;40.472;-3.878;2022-08-04T00:02:37;52747.94;;;-139.96;29.63
7906;BME280;13291;40.472;-3.878;2022-08-04T00:05:11;52785.94;;;-139.96;29.96
7906;BME280;13291;40.472;-3.878;2022-08-04T00:07:47;52783.94;;;-139.96;30.46
7906;BME280;13291;40.472;-3.878;2022-08-04T00:10:17;52791.94;;;-139.96;30.89
7906;BME280;13291;40.472;-3.878;2022-08-04T00:12:49;52773.94;;;-139.96;31.16
7906;BME280;13291;40.472;-3.878;2022-08-04T00:15:17;52787.94;;;-139.96;31.29
7906;BME280;13291;40.472;-3.878;2022-08-04T00:17:49;52761.94;;;-139.96;31.17
7906;BME280;13291;40.472;-3.878;2022-08-04T00:20:18;52763.94;;;-139.96;31.24
7906;BME280;13291;40.472;-3.878;2022-08-04T00:22:47;52797.94;;;-139.96;31.54
7906;BME280;13291;40.472;-3.878;2022-08-04T00:25:14;52777.94;;;-139.96;31.65
7906;BME280;13291;40.472;-3.878;2022-08-04T00:27:41;52771.94;;;-139.96;31.59
7906;BME280;13291;40.472;-3.878;2022-08-04T00:30:10;52779.94;;;-139.96;31.28
7906;BME280;13291;40.472;-3.878;2022-08-04T00:32:39;52801.94;;;-139.96;30.90
7906;BME280;13291;40.472;-3.878;2022-08-04T00:35:08;52771.94;;;-139.96;31.42
7906;BME280;13291;40.472;-3.878;2022-08-04T00:37:37;52775.94;;;-139.96;31.50
7906;BME280;13291;40.472;-3.878;2022-08-04T00:40:12;52765.94;;;-139.96;31.67
7906;BME280;13291;40.472;-3.878;2022-08-04T00:42:45;52789.94;;;-139.96;32.02
7906;BME280;13291;40.472;-3.878;2022-08-04T00:48:36;52761.94;;;-139.96;31.97
7906;BME280;13291;40.472;-3.878;2022-08-04T00:51:14;52785.94;;;-139.96;32.17
7906;BME280;13291;40.472;-3.878;2022-08-04T00:53:54;52789.94;;;-139.96;32.49
7906;BME280;13291;40.472;-3.878;2022-08-04T00:57:00;52821.94;;;-139.96;32.53
7906;BME280;13291;40.472;-3.878;2022-08-04T00:59:41;52811.94;;;-139.96;32.50
7906;BME280;13291;40.472;-3.878;2022-08-04T01:02:19;52753.94;;;-139.96;32.24
7906;BME280;13291;40.472;-3.878;2022-08-04T01:05:01;52789.94;;;-139.96;32.28
7906;BME280;13291;40.472;-3.878;2022-08-04T01:07:54;52777.94;;;-139.96;32.28
7906;BME280;13291;40.472;-3.878;2022-08-04T01:10:27;52773.94;;;-139.96;32.23
7906;BME280;13291;40.472;-3.878;2022-08-04T01:15:56;52803.94;;;-139.96;32.09
7906;BME280;13291;40.472;-3.878;2022-08-04T01:18:32;52785.94;;;-139.96;31.95
7906;BME280;13291;40.472;-3.878;2022-08-04T01:21:12;52813.94;;;-139.96;32.14
7906;BME280;13291;40.472;-3.878;2022-08-04T01:23:55;52799.94;;;-139.96;32.14
7906;BME280;13291;40.472;-3.878;2022-08-04T01:26:47;52781.94;;;-139.96;32.31
7906;BME280;13291;40.472;-3.878;2022-08-04T01:29:20;52797.94;;;-139.96;32.27
7906;BME280;13291;40.472;-3.878;2022-08-04T01:31:58;52783.94;;;-139.96;32.48
7906;BME280;13291;40.472;-3.878;2022-08-04T01:34:28;52785.94;;;-139.96;32.91
7906;BME280;13291;40.472;-3.878;2022-08-04T01:37:07;52803.94;;;-139.96;32.72
7906;BME280;13291;40.472;-3.878;2022-08-04T01:39:49;52763.94;;;-139.96;33.00
7906;BME280;13291;40.472;-3.878;2022-08-04T01:42:17;52815.94;;;-139.96;32.82
7906;BME280;13291;40.472;-3.878;2022-08-04T01:44:47;52777.94;;;-139.96;32.83
7906;BME280;13291;40.472;-3.878;2022-08-04T01:47:19;52803.94;;;-139.96;32.92
7906;BME280;13291;40.472;-3.878;2022-08-04T01:49:48;52765.94;;;-139.96;32.95
7906;BME280;13291;40.472;-3.878;2022-08-04T01:52:16;52795.94;;;-139.96;33.25
7906;BME280;13291;40.472;-3.878;2022-08-04T01:54:45;52833.97;;;-139.96;33.17
7906;BME280;13291;40.472;-3.878;2022-08-04T01:57:14;52819.94;;;-139.96;33.30
7906;BME280;13291;40.472;-3.878;2022-08-04T01:59:44;52801.94;;;-139.96;33.54
7906;BME280;13291;40.472;-3.878;2022-08-04T02:02:14;52805.94;;;-139.96;33.27
7906;BME280;13291;40.472;-3.878;2022-08-04T02:04:41;52805.94;;;-139.96;33.46
7906;BME280;13291;40.472;-3.878;2022-08-04T02:07:24;52797.94;;;-139.96;33.52
7906;BME280;13291;40.472;-3.878;2022-08-04T02:10:03;52801.94;;;-139.96;33.51
7906;BME280;13291;40.472;-3.878;2022-08-04T02:12:42;52803.94;;;-139.96;33.54
7906;BME280;13291;40.472;-3.878;2022-08-04T02:15:25;52789.94;;;-139.96;33.66
7906;BME280;13291;40.472;-3.878;2022-08-04T02:17:59;52781.94;;;-139.96;33.58
7906;BME280;13291;40.472;-3.878;2022-08-04T02:20:29;52807.94;;;-139.96;33.33
7906;BME280;13291;40.472;-3.878;2022-08-04T02:23:00;52791.94;;;-139.96;33.43
7906;BME280;13291;40.472;-3.878;2022-08-04T02:25:35;52777.94;;;-139.96;33.34
7906;BME280;13291;40.472;-3.878;2022-08-04T02:28:11;52797.94;;;-139.96;33.26
7906;BME280;13291;40.472;-3.878;2022-08-04T02:30:49;52795.94;;;-139.96;33.37
7906;BME280;13291;40.472;-3.878;2022-08-04T02:33:25;52817.94;;;-139.96;33.36
7906;BME280;13291;40.472;-3.878;2022-08-04T02:35:58;52811.94;;;-139.96;33.30
7906;BME280;13291;40.472;-3.878;2022-08-04T02:38:37;52807.94;;;-139.96;33.49
7906;BME280;13291;40.472;-3.878;2022-08-04T02:41:08;52819.94;;;-139.96;33.51
7906;BME280;13291;40.472;-3.878;2022-08-04T02:43:35;52795.94;;;-139.96;33.50
7906;BME280;13291;40.472;-3.878;2022-08-04T02:46:04;52789.94;;;-139.96;33.92
7906;BME280;13291;40.472;-3.878;2022-08-04T02:48:33;52833.97;;;-139.96;33.39
7906;BME280;13291;40.472;-3.878;2022-08-04T02:51:02;52791.94;;;-139.96;33.61
7906;BME280;13291;40.472;-3.878;2022-08-04T02:53:32;52823.94;;;-139.96;33.68
7906;BME280;13291;40.472;-3.878;2022-08-04T02:56:03;52813.94;;;-139.96;33.59
7906;BME280;13291;40.472;-3.878;2022-08-04T02:58:34;52785.94;;;-139.96;33.85
7906;BME280;13291;40.472;-3.878;2022-08-04T03:01:03;52807.94;;;-139.96;33.68
7906;BME280;13291;40.472;-3.878;2022-08-04T03:03:36;52805.94;;;-139.96;33.81
7906;BME280;13291;40.472;-3.878;2022-08-04T03:06:40;52789.94;;;-139.96;33.53
7906;BME280;13291;40.472;-3.878;2022-08-04T03:09:50;52779.94;;;-139.96;33.42
7906;BME280;13291;40.472;-3.878;2022-08-04T03:16:08;52815.94;;;-139.96;33.44
7906;BME280;13291;40.472;-3.878;2022-08-04T03:19:21;52801.94;;;-139.96;33.31
7906;BME280;13291;40.472;-3.878;2022-08-04T03:22:22;52789.94;;;-139.96;33.44
7906;BME280;13291;40.472;-3.878;2022-08-04T03:31:22;52797.94;;;-139.96;33.39
7906;BME280;13291;40.472;-3.878;2022-08-04T03:34:11;52787.94;;;-139.96;33.40
7906;BME280;13291;40.472;-3.878;2022-08-04T03:37:02;52807.94;;;-139.96;33.56
7906;BME280;13291;40.472;-3.878;2022-08-04T03:39:49;52785.94;;;-139.96;33.44
7906;BME280;13291;40.472;-3.878;2022-08-04T03:42:39;52811.94;;;-139.96;33.51
7906;BME280;13291;40.472;-3.878;2022-08-04T03:45:45;52817.94;;;-139.96;33.42
7906;BME280;13291;40.472;-3.878;2022-08-04T03:51:35;52771.94;;;-139.96;33.24
7906;BME280;13291;40.472;-3.878;2022-08-04T03:58:03;52823.94;;;-139.96;33.30
7906;BME280;13291;40.472;-3.878;2022-08-04T04:00:39;52805.94;;;-139.96;33.45
7906;BME280;13291;40.472;-3.878;2022-08-04T04:06:48;52803.94;;;-139.96;33.44
7906;BME280;13291;40.472;-3.878;2022-08-04T04:09:32;52831.97;;;-139.96;33.47
7906;BME280;13291;40.472;-3.878;2022-08-04T04:12:16;52797.94;;;-139.96;33.60
7906;BME280;13291;40.472;-3.878;2022-08-04T04:15:08;52807.94;;;-139.96;33.61
7906;BME280;13291;40.472;-3.878;2022-08-04T04:18:19;52819.94;;;-139.96;33.57
7906;BME280;13291;40.472;-3.878;2022-08-04T04:21:18;52817.94;;;-139.96;33.40
7906;BME280;13291;40.472;-3.878;2022-08-04T04:24:14;52821.94;;;-139.96;33.61
7906;BME280;13291;40.472;-3.878;2022-08-04T04:26:55;52811.94;;;-139.96;33.62
7906;BME280;13291;40.472;-3.878;2022-08-04T04:29:41;52831.97;;;-139.96;33.67
7906;BME280;13291;40.472;-3.878;2022-08-04T04:32:22;52819.94;;;-139.96;33.52
7906;BME280;13291;40.472;-3.878;2022-08-04T04:35:04;52829.94;;;-139.96;33.88
7906;BME280;13291;40.472;-3.878;2022-08-04T04:37:46;52841.97;;;-139.96;33.57
7906;BME280;13291;40.472;-3.878;2022-08-04T04:40:31;52807.94;;;-139.96;33.62
7906;BME280;13291;40.472;-3.878;2022-08-04T04:43:21;52815.94;;;-139.96;33.45
7906;BME280;13291;40.472;-3.878;2022-08-04T04:45:53;52837.97;;;-139.96;33.61
7906;BME280;13291;40.472;-3.878;2022-08-04T04:48:32;52809.94;;;-139.96;33.72
7906;BME280;13291;40.472;-3.878;2022-08-04T04:51:11;52817.94;;;-139.96;33.58
7906;BME280;13291;40.472;-3.878;2022-08-04T04:53:57;52817.94;;;-139.96;33.61
7906;BME280;13291;40.472;-3.878;2022-08-04T04:56:36;52781.94;;;-139.96;33.63
7906;BME280;13291;40.472;-3.878;2022-08-04T04:59:10;52811.94;;;-139.96;33.75
7906;BME280;13291;40.472;-3.878;2022-08-04T05:08:44;52825.94;;;-139.96;33.68
7906;BME280;13291;40.472;-3.878;2022-08-04T05:11:36;52839.97;;;-139.96;33.81
7906;BME280;13291;40.472;-3.878;2022-08-04T05:14:10;52827.94;;;-139.96;33.66
7906;BME280;13291;40.472;-3.878;2022-08-04T05:16:43;52799.94;;;-139.96;33.97
7906;BME280;13291;40.472;-3.878;2022-08-04T05:19:27;52851.97;;;-139.96;33.82
7906;BME280;13291;40.472;-3.878;2022-08-04T05:22:01;52839.97;;;-139.96;34.04
7906;BME280;13291;40.472;-3.878;2022-08-04T05:24:36;52823.94;;;-139.96;34.26
7906;BME280;13291;40.472;-3.878;2022-08-04T05:27:10;52839.97;;;-139.96;34.36
7906;BME280;13291;40.472;-3.878;2022-08-04T05:29:43;52829.94;;;-139.96;34.38
7906;BME280;13291;40.472;-3.878;2022-08-04T05:32:13;52839.97;;;-139.96;34.65
7906;BME280;13291;40.472;-3.878;2022-08-04T05:34:48;52815.94;;;-139.96;34.62
7906;BME280;13291;40.472;-3.878;2022-08-04T05:37:18;52817.94;;;-139.96;34.74
7906;BME280;13291;40.472;-3.878;2022-08-04T05:39:56;52843.97;;;-139.96;34.87
7906;BME280;13291;40.472;-3.878;2022-08-04T05:42:24;52813.94;;;-139.96;34.82
7906;BME280;13291;40.472;-3.878;2022-08-04T05:44:53;52841.97;;;-139.96;35.06
7906;BME280;13291;40.472;-3.878;2022-08-04T05:47:20;52825.94;;;-139.96;34.72
7906;BME280;13291;40.472;-3.878;2022-08-04T05:49:47;52865.97;;;-139.96;35.19
7906;BME280;13291;40.472;-3.878;2022-08-04T05:52:14;52853.97;;;-139.96;35.19
7906;BME280;13291;40.472;-3.878;2022-08-04T05:54:42;52845.97;;;-139.96;35.31
7906;BME280;13291;40.472;-3.878;2022-08-04T05:57:11;52837.97;;;-139.96;35.14
7906;BME280;13291;40.472;-3.878;2022-08-04T05:59:39;52845.97;;;-139.96;35.32
7906;BME280;13291;40.472;-3.878;2022-08-04T06:02:13;52829.94;;;-139.96;35.38
7906;BME280;13291;40.472;-3.878;2022-08-04T06:04:44;52857.97;;;-139.96;35.37
7906;BME280;13291;40.472;-3.878;2022-08-04T06:07:12;52809.94;;;-139.96;35.63
7906;BME280;13291;40.472;-3.878;2022-08-04T06:09:39;52837.97;;;-139.96;35.60
7906;BME280;13291;40.472;-3.878;2022-08-04T06:12:11;52873.97;;;-139.96;35.76
7906;BME280;13291;40.472;-3.878;2022-08-04T06:14:43;52805.94;;;-139.96;35.91
7906;BME280;13291;40.472;-3.878;2022-08-04T06:17:13;52841.97;;;-139.96;35.74
7906;BME280;13291;40.472;-3.878;2022-08-04T06:19:43;52851.97;;;-139.96;35.73
7906;BME280;13291;40.472;-3.878;2022-08-04T06:22:11;52849.97;;;-139.96;35.72
7906;BME280;13291;40.472;-3.878;2022-08-04T06:24:40;52833.97;;;-139.96;35.79
7906;BME280;13291;40.472;-3.878;2022-08-04T06:27:13;52829.94;;;-139.96;36.05
7906;BME280;13291;40.472;-3.878;2022-08-04T06:29:43;52841.97;;;-139.96;35.85
7906;BME280;13291;40.472;-3.878;2022-08-04T06:32:12;52859.97;;;-139.96;36.11
7906;BME280;13291;40.472;-3.878;2022-08-04T06:34:54;52853.97;;;-139.96;36.80
7906;BME280;13291;40.472;-3.878;2022-08-04T06:37:22;52829.94;;;-139.96;37.01
7906;BME280;13291;40.472;-3.878;2022-08-04T06:39:50;52879.97;;;-139.96;36.18
7906;BME280;13291;40.472;-3.878;2022-08-04T06:42:21;52839.97;;;-139.96;36.39
7906;BME280;13291;40.472;-3.878;2022-08-04T06:44:51;52835.97;;;-139.96;36.17
7906;BME280;13291;40.472;-3.878;2022-08-04T06:47:20;52837.97;;;-139.96;36.35
7906;BME280;13291;40.472;-3.878;2022-08-04T06:49:49;52831.97;;;-139.96;36.23
7906;BME280;13291;40.472;-3.878;2022-08-04T06:52:19;52837.97;;;-139.96;36.36
7906;BME280;13291;40.472;-3.878;2022-08-04T06:54:47;52849.97;;;-139.96;36.44
7906;BME280;13291;40.472;-3.878;2022-08-04T06:57:18;52841.97;;;-139.96;35.88
7906;BME280;13291;40.472;-3.878;2022-08-04T06:59:49;52851.97;;;-139.96;36.10
7906;BME280;13291;40.472;-3.878;2022-08-04T07:02:21;52845.97;;;-139.96;36.51
7906;BME280;13291;40.472;-3.878;2022-08-04T07:04:49;52853.97;;;-139.96;36.50
7906;BME280;13291;40.472;-3.878;2022-08-04T07:07:16;52839.97;;;-139.96;35.87
7906;BME280;13291;40.472;-3.878;2022-08-04T07:09:44;52841.97;;;-139.96;35.49
7906;BME280;13291;40.472;-3.878;2022-08-04T07:12:11;52823.94;;;-139.96;35.66
7906;BME280;13291;40.472;-3.878;2022-08-04T07:14:39;52865.97;;;-139.96;35.80
7906;BME280;13291;40.472;-3.878;2022-08-04T07:17:08;52825.94;;;-139.96;36.02
7906;BME280;13291;40.472;-3.878;2022-08-04T07:19:36;52827.94;;;-139.96;36.02
7906;BME280;13291;40.472;-3.878;2022-08-04T07:22:06;52833.97;;;-139.96;35.59
7906;BME280;13291;40.472;-3.878;2022-08-04T07:24:36;52837.97;;;-139.96;35.41
7906;BME280;13291;40.472;-3.878;2022-08-04T07:27:04;52821.94;;;-139.96;34.92
7906;BME280;13291;40.472;-3.878;2022-08-04T07:29:32;52809.94;;;-139.96;34.65
7906;BME280;13291;40.472;-3.878;2022-08-04T07:32:01;52819.94;;;-139.96;34.76
7906;BME280;13291;40.472;-3.878;2022-08-04T07:34:30;52821.94;;;-139.96;34.68
7906;BME280;13291;40.472;-3.878;2022-08-04T07:36:59;52831.97;;;-139.96;34.89
7906;BME280;13291;40.472;-3.878;2022-08-04T07:39:28;52801.94;;;-139.96;34.19
7906;BME280;13291;40.472;-3.878;2022-08-04T07:41:57;52811.94;;;-139.96;34.54
7906;BME280;13291;40.472;-3.878;2022-08-04T07:44:25;52847.97;;;-139.96;34.53
7906;BME280;13291;40.472;-3.878;2022-08-04T07:46:53;52817.94;;;-139.96;34.51
7906;BME280;13291;40.472;-3.878;2022-08-04T07:49:19;52819.94;;;-139.96;34.86
7906;BME280;13291;40.472;-3.878;2022-08-04T07:51:48;52813.94;;;-139.96;34.74
7906;BME280;13291;40.472;-3.878;2022-08-04T07:54:16;52835.97;;;-139.96;34.81
7906;BME280;13291;40.472;-3.878;2022-08-04T07:56:43;52831.97;;;-139.96;33.97
7906;BME280;13291;40.472;-3.878;2022-08-04T07:59:13;52821.94;;;-139.96;33.59
7906;BME280;13291;40.472;-3.878;2022-08-04T08:01:40;52837.97;;;-139.96;33.63
7906;BME280;13291;40.472;-3.878;2022-08-04T08:04:10;52823.94;;;-139.96;33.42
7906;BME280;13291;40.472;-3.878;2022-08-04T08:06:38;52789.94;;;-139.96;33.49
7906;BME280;13291;40.472;-3.878;2022-08-04T08:09:13;52795.94;;;-139.96;33.38
7906;BME280;13291;40.472;-3.878;2022-08-04T08:11:40;52813.94;;;-139.96;33.61
7906;BME280;13291;40.472;-3.878;2022-08-04T08:14:08;52825.94;;;-139.96;33.42
7906;BME280;13291;40.472;-3.878;2022-08-04T08:16:35;52813.94;;;-139.96;33.61
7906;BME280;13291;40.472;-3.878;2022-08-04T08:19:03;52845.97;;;-139.96;33.37
7906;BME280;13291;40.472;-3.878;2022-08-04T08:21:30;52797.94;;;-139.96;33.29
7906;BME280;13291;40.472;-3.878;2022-08-04T08:23:58;52801.94;;;-139.96;33.34
7906;BME280;13291;40.472;-3.878;2022-08-04T08:26:26;52829.94;;;-139.96;33.85
7906;BME280;13291;40.472;-3.878;2022-08-04T08:28:55;52829.94;;;-139.96;33.57
7906;BME280;13291;40.472;-3.878;2022-08-04T08:31:22;52843.97;;;-139.96;33.08
7906;BME280;13291;40.472;-3.878;2022-08-04T08:33:50;52785.94;;;-139.96;33.68
7906;BME280;13291;40.472;-3.878;2022-08-04T08:36:22;52797.94;;;-139.96;33.63
7906;BME280;13291;40.472;-3.878;2022-08-04T08:38:58;52797.94;;;-139.96;33.90
7906;BME280;13291;40.472;-3.878;2022-08-04T08:41:56;52829.94;;;-139.96;33.51
7906;BME280;13291;40.472;-3.878;2022-08-04T08:48:10;52807.94;;;-139.96;32.94
7906;BME280;13291;40.472;-3.878;2022-08-04T08:51:01;52831.97;;;-139.96;32.82
7906;BME280;13291;40.472;-3.878;2022-08-04T08:53:47;52819.94;;;-139.96;32.52
7906;BME280;13291;40.472;-3.878;2022-08-04T08:56:25;52787.94;;;-139.96;32.19
7906;BME280;13291;40.472;-3.878;2022-08-04T08:59:14;52811.94;;;-139.96;32.78
7906;BME280;13291;40.472;-3.878;2022-08-04T09:02:01;52819.94;;;-139.96;32.40
7906;BME280;13291;40.472;-3.878;2022-08-04T09:05:01;52813.94;;;-139.96;31.97
7906;BME280;13291;40.472;-3.878;2022-08-04T09:08:06;52809.94;;;-139.96;32.47
7906;BME280;13291;40.472;-3.878;2022-08-04T09:10:41;52821.94;;;-139.96;31.90
7906;BME280;13291;40.472;-3.878;2022-08-04T09:13:16;52815.94;;;-139.96;32.12
7906;BME280;13291;40.472;-3.878;2022-08-04T09:15:51;52793.94;;;-139.96;32.28
7906;BME280;13291;40.472;-3.878;2022-08-04T09:18:24;52775.94;;;-139.96;32.43
7906;BME280;13291;40.472;-3.878;2022-08-04T09:20:58;52817.94;;;-139.96;32.60
7906;BME280;13291;40.472;-3.878;2022-08-04T09:23:34;52809.94;;;-139.96;32.38
7906;BME280;13291;40.472;-3.878;2022-08-04T09:26:11;52773.94;;;-139.96;32.79
7906;BME280;13291;40.472;-3.878;2022-08-04T09:28:48;52809.94;;;-139.96;32.14
7906;BME280;13291;40.472;-3.878;2022-08-04T09:31:23;52789.94;;;-139.96;32.75
7906;BME280;13291;40.472;-3.878;2022-08-04T09:33:58;52793.94;;;-139.96;32.05
7906;BME280;13291;40.472;-3.878;2022-08-04T09:36:31;52787.94;;;-139.96;32.46
7906;BME280;13291;40.472;-3.878;2022-08-04T09:39:09;52801.94;;;-139.96;32.48
7906;BME280;13291;40.472;-3.878;2022-08-04T09:41:55;52795.94;;;-139.96;32.33
7906;BME280;13291;40.472;-3.878;2022-08-04T09:44:32;52797.94;;;-139.96;32.56
7906;BME280;13291;40.472;-3.878;2022-08-04T09:47:08;52807.94;;;-139.96;32.35
7906;BME280;13291;40.472;-3.878;2022-08-04T09:49:40;52793.94;;;-139.96;32.60
7906;BME280;13291;40.472;-3.878;2022-08-04T09:52:19;52785.94;;;-139.96;33.21
7906;BME280;13291;40.472;-3.878;2022-08-04T09:54:52;52765.94;;;-139.96;32.60
7906;BME280;13291;40.472;-3.878;2022-08-04T09:57:30;52809.94;;;-139.96;32.74
7906;BME280;13291;40.472;-3.878;2022-08-04T10:00:04;52777.94;;;-139.96;32.60
7906;BME280;13291;40.472;-3.878;2022-08-04T10:02:37;52795.94;;;-139.96;32.65
7906;BME280;13291;40.472;-3.878;2022-08-04T10:05:09;52783.94;;;-139.96;32.81
7906;BME280;13291;40.472;-3.878;2022-08-04T10:08:01;52797.94;;;-139.96;32.68
7906;BME280;13291;40.472;-3.878;2022-08-04T10:10:35;52811.94;;;-139.96;33.03
7906;BME280;13291;40.472;-3.878;2022-08-04T10:13:16;52791.94;;;-139.96;32.82
7906;BME280;13291;40.472;-3.878;2022-08-04T10:15:50;52765.94;;;-139.96;32.10
7906;BME280;13291;40.472;-3.878;2022-08-04T10:18:39;52773.94;;;-139.96;32.38
7906;BME280;13291;40.472;-3.878;2022-08-04T10:21:15;52775.94;;;-139.96;31.78
7906;BME280;13291;40.472;-3.878;2022-08-04T10:24:06;52791.94;;;-139.96;32.44
7906;BME280;13291;40.472;-3.878;2022-08-04T10:26:45;52821.94;;;-139.96;31.38
7906;BME280;13291;40.472;-3.878;2022-08-04T10:29:18;52787.94;;;-139.96;32.30
7906;BME280;13291;40.472;-3.878;2022-08-04T10:31:54;52785.94;;;-139.96;31.72
7906;BME280;13291;40.472;-3.878;2022-08-04T10:34:27;52785.94;;;-139.96;32.26
7906;BME280;13291;40.472;-3.878;2022-08-04T10:37:05;52765.94;;;-139.96;31.52
7906;BME280;13291;40.472;-3.878;2022-08-04T10:39:39;52779.94;;;-139.96;30.66
7906;BME280;13291;40.472;-3.878;2022-08-04T10:42:29;52799.94;;;-139.96;31.38
7906;BME280;13291;40.472;-3.878;2022-08-04T10:45:07;52763.94;;;-139.96;31.49
7906;BME280;13291;40.472;-3.878;2022-08-04T10:47:41;52757.94;;;-139.96;31.24
7906;BME280;13291;40.472;-3.878;2022-08-04T10:50:12;52769.94;;;-139.96;31.50
7906;BME280;13291;40.472;-3.878;2022-08-04T10:52:44;52781.94;;;-139.96;31.53
7906;BME280;13291;40.472;-3.878;2022-08-04T10:55:19;52761.94;;;-139.96;30.83
7906;BME280;13291;40.472;-3.878;2022-08-04T10:57:49;52767.94;;;-139.96;31.16
7906;BME280;13291;40.472;-3.878;2022-08-04T11:00:20;52765.94;;;-139.96;31.02
7906;BME280;13291;40.472;-3.878;2022-08-04T11:02:53;52767.94;;;-139.96;30.60
7906;BME280;13291;40.472;-3.878;2022-08-04T11:05:29;52785.94;;;-139.96;31.11
7906;BME280;13291;40.472;-3.878;2022-08-04T11:08:02;52731.94;;;-139.96;29.69
7906;BME280;13291;40.472;-3.878;2022-08-04T11:10:34;52741.94;;;-139.96;30.36
7906;BME280;13291;40.472;-3.878;2022-08-04T11:13:05;52793.94;;;-139.96;30.34
7906;BME280;13291;40.472;-3.878;2022-08-04T11:15:39;52769.94;;;-139.96;30.65
7906;BME280;13291;40.472;-3.878;2022-08-04T11:18:12;52761.94;;;-139.96;30.42
7906;BME280;13291;40.472;-3.878;2022-08-04T11:20:46;52741.94;;;-139.96;29.98
7906;BME280;13291;40.472;-3.878;2022-08-04T11:23:17;52735.94;;;-139.96;29.07
7906;BME280;13291;40.472;-3.878;2022-08-04T11:25:54;52747.94;;;-139.96;28.54
7906;BME280;13291;40.472;-3.878;2022-08-04T11:28:31;52729.94;;;-139.96;29.22
7906;BME280;13291;40.472;-3.878;2022-08-04T11:31:03;52721.94;;;-139.96;27.09
7906;BME280;13291;40.472;-3.878;2022-08-04T11:33:36;52747.94;;;-139.96;26.97
7906;BME280;13291;40.472;-3.878;2022-08-04T11:36:14;52733.94;;;-139.96;28.67
7906;BME280;13291;40.472;-3.878;2022-08-04T11:38:48;52731.94;;;-139.96;29.47
7906;BME280;13291;40.472;-3.878;2022-08-04T11:41:22;52739.94;;;-139.96;29.71
7906;BME280;13291;40.472;-3.878;2022-08-04T11:43:53;52745.94;;;-139.96;29.52
7906;BME280;13291;40.472;-3.878;2022-08-04T11:46:26;52725.94;;;-139.96;28.80
7906;BME280;13291;40.472;-3.878;2022-08-04T11:49:00;52749.94;;;-139.96;30.61
7906;BME280;13291;40.472;-3.878;2022-08-04T11:51:30;52721.94;;;-139.96;29.47
7906;BME280;13291;40.472;-3.878;2022-08-04T11:53:59;52729.94;;;-139.96;26.93
7906;BME280;13291;40.472;-3.878;2022-08-04T11:56:27;52723.94;;;-139.96;26.46
7906;BME280;13291;40.472;-3.878;2022-08-04T11:58:55;52733.94;;;-139.96;26.63
7906;BME280;13291;40.472;-3.878;2022-08-04T12:01:27;52719.94;;;-139.96;27.13
7906;BME280;13291;40.472;-3.878;2022-08-04T12:04:03;52745.94;;;-139.96;28.02
7906;BME280;13291;40.472;-3.878;2022-08-04T12:06:41;52721.94;;;-139.96;29.06
7906;BME280;13291;40.472;-3.878;2022-08-04T12:09:17;52713.94;;;-139.96;28.24
7906;BME280;13291;40.472;-3.878;2022-08-04T12:12:01;52681.94;;;-139.96;25.87
7906;BME280;13291;40.472;-3.878;2022-08-04T12:14:46;52711.94;;;-139.96;25.73
7906;BME280;13291;40.472;-3.878;2022-08-04T12:17:21;52713.94;;;-139.96;25.28
7906;BME280;13291;40.472;-3.878;2022-08-04T12:19:54;52725.94;;;-139.96;24.81
7906;BME280;13291;40.472;-3.878;2022-08-04T12:22:25;52709.94;;;-139.96;24.97
7906;BME280;13291;40.472;-3.878;2022-08-04T12:24:58;52701.94;;;-139.96;24.95
7906;BME280;13291;40.472;-3.878;2022-08-04T12:27:31;52727.94;;;-139.96;24.49
7906;BME280;13291;40.472;-3.878;2022-08-04T12:30:00;52719.94;;;-139.96;24.54
7906;BME280;13291;40.472;-3.878;2022-08-04T12:32:31;52729.94;;;-139.96;25.41
7906;BME280;13291;40.472;-3.878;2022-08-04T12:35:08;52709.94;;;-139.96;26.25
7906;BME280;13291;40.472;-3.878;2022-08-04T12:37:45;52713.94;;;-139.96;25.78
7906;BME280;13291;40.472;-3.878;2022-08-04T12:40:16;52701.94;;;-139.96;25.60
7906;BME280;13291;40.472;-3.878;2022-08-04T12:42:49;52727.94;;;-139.96;25.24
7906;BME280;13291;40.472;-3.878;2022-08-04T12:45:23;52701.94;;;-139.96;25.02
7906;BME280;13291;40.472;-3.878;2022-08-04T12:47:52;52709.94;;;-139.96;24.27
7906;BME280;13291;40.472;-3.878;2022-08-04T12:50:20;52679.94;;;-139.96;25.08
7906;BME280;13291;40.472;-3.878;2022-08-04T12:52:53;52667.94;;;-139.96;25.90
7906;BME280;13291;40.472;-3.878;2022-08-04T12:55:23;52669.94;;;-139.96;23.85
7906;BME280;13291;40.472;-3.878;2022-08-04T12:57:51;52669.94;;;-139.96;24.58
7906;BME280;13291;40.472;-3.878;2022-08-04T13:00:23;52697.94;;;-139.96;25.42
7906;BME280;13291;40.472;-3.878;2022-08-04T13:02:50;52677.94;;;-139.96;24.07
7906;BME280;13291;40.472;-3.878;2022-08-04T13:05:20;52697.94;;;-139.96;23.86
7906;BME280;13291;40.472;-3.878;2022-08-04T13:07:50;52709.94;;;-139.96;22.92
7906;BME280;13291;40.472;-3.878;2022-08-04T13:10:21;52679.94;;;-139.96;23.43
7906;BME280;13291;40.472;-3.878;2022-08-04T13:12:54;52675.94;;;-139.96;24.46
7906;BME280;13291;40.472;-3.878;2022-08-04T13:15:23;52679.94;;;-139.96;24.00
7906;BME280;13291;40.472;-3.878;2022-08-04T13:17:52;52709.94;;;-139.96;24.50
7906;BME280;13291;40.472;-3.878;2022-08-04T13:20:26;52671.94;;;-139.96;25.41
7906;BME280;13291;40.472;-3.878;2022-08-04T13:23:03;52679.94;;;-139.96;24.73
7906;BME280;13291;40.472;-3.878;2022-08-04T13:25:31;52681.94;;;-139.96;23.08
7906;BME280;13291;40.472;-3.878;2022-08-04T13:27:59;52669.94;;;-139.96;23.27
7906;BME280;13291;40.472;-3.878;2022-08-04T13:30:29;52665.94;;;-139.96;23.27
7906;BME280;13291;40.472;-3.878;2022-08-04T13:33:00;52661.94;;;-139.96;23.52
7906;BME280;13291;40.472;-3.878;2022-08-04T13:35:28;52657.94;;;-139.96;23.31
7906;BME280;13291;40.472;-3.878;2022-08-04T13:37:58;52675.94;;;-139.96;22.83
7906;BME280;13291;40.472;-3.878;2022-08-04T13:40:26;52655.94;;;-139.96;23.47
7906;BME280;13291;40.472;-3.878;2022-08-04T13:42:55;52635.94;;;-139.96;23.51
7906;BME280;13291;40.472;-3.878;2022-08-04T13:45:24;52655.94;;;-139.96;23.79
7906;BME280;13291;40.472;-3.878;2022-08-04T13:47:58;52677.94;;;-139.96;23.35
7906;BME280;13291;40.472;-3.878;2022-08-04T13:50:27;52661.94;;;-139.96;24.18
7906;BME280;13291;40.472;-3.878;2022-08-04T13:52:57;52643.94;;;-139.96;24.05
7906;BME280;13291;40.472;-3.878;2022-08-04T13:55:28;52641.94;;;-139.96;22.94
7906;BME280;13291;40.472;-3.878;2022-08-04T13:58:04;52655.94;;;-139.96;22.67